sensor_id;sensor_type;location;lat;lon;timestamp;pressure;altitude;pressure_sealevel;temperature;humidity
59168;BME280;44948;55.046;73.266;2022-11-20T00:00:20;101171.94;;;-19.90;77.84
59168;BME280;44948;55.046;73.266;2022-11-20T00:02:02;101163.81;;;-19.99;77.68
59168;BME280;44948;55.046;73.266;2022-11-20T00:03:45;101167.31;;;-19.97;77.95
59168;BME280;44948;55.046;73.266;2022-11-20T00:05:32;101135.75;;;-20.21;78.02
59168;BME280;44948;55.046;73.266;2022-11-20T00:07:15;101164.59;;;-20.00;77.78
59168;BME280;44948;55.046;73.266;2022-11-20T00:08:59;101164.59;;;-20.00;78.22
59168;BME280;44948;55.046;73.266;2022-11-20T00:10:41;101159.41;;;-20.03;78.33
59168;BME280;44948;55.046;73.266;2022-11-20T00:12:24;101171.13;;;-20.02;78.08
59168;BME280;44948;55.046;73.266;2022-11-20T00:14:06;101174.47;;;-20.01;78.32
59168;BME280;44948;55.046;73.266;2022-11-20T00:15:57;101168.03;;;-19.98;78.09
59168;BME280;44948;55.046;73.266;2022-11-20T00:17:39;101167.84;;;-20.01;78.08
59168;BME280;44948;55.046;73.266;2022-11-20T00:19:22;101139.00;;;-20.22;77.93
59168;BME280;44948;55.046;73.266;2022-11-20T00:21:07;101165.25;;;-20.02;77.90
59168;BME280;44948;55.046;73.266;2022-11-20T00:22:50;101161.13;;;-20.02;77.89
59168;BME280;44948;55.046;73.266;2022-11-20T00:24:32;101131.13;;;-20.28;77.98
59168;BME280;44948;55.046;73.266;2022-11-20T00:26:17;101166.03;;;-20.03;77.84
59168;BME280;44948;55.046;73.266;2022-11-20T00:27:59;101177.66;;;-20.04;77.93
59168;BME280;44948;55.046;73.266;2022-11-20T00:29:42;101164.69;;;-20.11;77.96
59168;BME280;44948;55.046;73.266;2022-11-20T00:31:24;101164.97;;;-20.07;77.75
59168;BME280;44948;55.046;73.266;2022-11-20T00:33:07;101159.78;;;-20.10;77.75
59168;BME280;44948;55.046;73.266;2022-11-20T00:34:49;101161.31;;;-20.12;77.99
59168;BME280;44948;55.046;73.266;2022-11-20T00:36:33;101148.22;;;-20.21;77.71
59168;BME280;44948;55.046;73.266;2022-11-20T00:38:15;101023.72;;;-20.94;78.10
59168;BME280;44948;55.046;73.266;2022-11-20T00:39:58;101066.16;;;-20.68;78.01
59168;BME280;44948;55.046;73.266;2022-11-20T00:41:40;101165.53;;;-20.11;77.81
59168;BME280;44948;55.046;73.266;2022-11-20T00:43:23;101139.69;;;-20.25;77.78
59168;BME280;44948;55.046;73.266;2022-11-20T00:45:05;101149.94;;;-20.20;77.81
59168;BME280;44948;55.046;73.266;2022-11-20T00:46:48;101162.72;;;-20.15;78.22
59168;BME280;44948;55.046;73.266;2022-11-20T00:48:31;101162.72;;;-20.15;77.93
59168;BME280;44948;55.046;73.266;2022-11-20T00:50:13;101157.09;;;-20.13;77.88
59168;BME280;44948;55.046;73.266;2022-11-20T00:51:55;101165.34;;;-20.14;77.81
59168;BME280;44948;55.046;73.266;2022-11-20T00:53:40;101164.44;;;-20.14;77.63
59168;BME280;44948;55.046;73.266;2022-11-20T00:55:23;101166.09;;;-20.15;77.79
59168;BME280;44948;55.046;73.266;2022-11-20T00:57:05;101168.38;;;-20.18;77.90
59168;BME280;44948;55.046;73.266;2022-11-20T00:58:48;101168.38;;;-20.18;77.83
59168;BME280;44948;55.046;73.266;2022-11-20T01:00:31;101177.50;;;-20.19;77.82
59168;BME280;44948;55.046;73.266;2022-11-20T01:02:13;101164.81;;;-20.22;77.53
59168;BME280;44948;55.046;73.266;2022-11-20T01:03:59;101165.88;;;-20.18;77.78
59168;BME280;44948;55.046;73.266;2022-11-20T01:05:42;101169.25;;;-20.18;77.36
59168;BME280;44948;55.046;73.266;2022-11-20T01:07:25;101170.00;;;-20.19;77.77
59168;BME280;44948;55.046;73.266;2022-11-20T01:09:12;101174.25;;;-20.18;77.73
59168;BME280;44948;55.046;73.266;2022-11-20T01:11:02;101174.34;;;-20.16;77.74
59168;BME280;44948;55.046;73.266;2022-11-20T01:12:44;101166.66;;;-20.19;77.47
59168;BME280;44948;55.046;73.266;2022-11-20T01:14:47;101171.84;;;-20.16;77.66
59168;BME280;44948;55.046;73.266;2022-11-20T01:16:31;101170.78;;;-20.20;77.27
59168;BME280;44948;55.046;73.266;2022-11-20T01:18:13;101169.72;;;-20.23;77.46
59168;BME280;44948;55.046;73.266;2022-11-20T01:19:55;101173.06;;;-20.23;77.80
59168;BME280;44948;55.046;73.266;2022-11-20T01:21:39;101175.78;;;-20.20;77.65
59168;BME280;44948;55.046;73.266;2022-11-20T01:23:22;101175.00;;;-20.19;77.51
59168;BME280;44948;55.046;73.266;2022-11-20T01:25:08;101177.59;;;-20.17;77.63
59168;BME280;44948;55.046;73.266;2022-11-20T01:26:51;101172.59;;;-20.17;77.26
59168;BME280;44948;55.046;73.266;2022-11-20T01:28:33;101176.84;;;-20.16;77.40
59168;BME280;44948;55.046;73.266;2022-11-20T01:30:16;101173.19;;;-20.21;77.40
59168;BME280;44948;55.046;73.266;2022-11-20T01:31:58;101170.69;;;-20.21;77.22
59168;BME280;44948;55.046;73.266;2022-11-20T01:33:41;101162.34;;;-20.22;77.59
59168;BME280;44948;55.046;73.266;2022-11-20T01:35:24;101164.72;;;-20.23;77.05
59168;BME280;44948;55.046;73.266;2022-11-20T01:37:06;101164.81;;;-20.22;77.36
59168;BME280;44948;55.046;73.266;2022-11-20T01:38:57;101170.13;;;-20.17;77.16
59168;BME280;44948;55.046;73.266;2022-11-20T01:40:39;101168.38;;;-20.18;77.53
59168;BME280;44948;55.046;73.266;2022-11-20T01:42:21;101172.50;;;-20.19;77.35
59168;BME280;44948;55.046;73.266;2022-11-20T01:44:50;101168.81;;;-20.12;77.53
59168;BME280;44948;55.046;73.266;2022-11-20T01:46:36;101162.53;;;-20.19;77.51
59168;BME280;44948;55.046;73.266;2022-11-20T01:48:20;101156.88;;;-20.16;77.22
59168;BME280;44948;55.046;73.266;2022-11-20T01:50:11;101166.84;;;-20.16;77.21
59168;BME280;44948;55.046;73.266;2022-11-20T01:52:02;101161.75;;;-20.18;77.43
59168;BME280;44948;55.046;73.266;2022-11-20T01:53:47;101150.16;;;-20.17;77.17
59168;BME280;44948;55.046;73.266;2022-11-20T01:55:34;101154.38;;;-20.16;77.09
59168;BME280;44948;55.046;73.266;2022-11-20T01:57:19;101152.66;;;-20.17;77.27
59168;BME280;44948;55.046;73.266;2022-11-20T01:59:04;101119.97;;;-20.33;77.32
59168;BME280;44948;55.046;73.266;2022-11-20T02:00:48;101143.84;;;-20.12;77.19
59168;BME280;44948;55.046;73.266;2022-11-20T02:02:31;101107.38;;;-20.35;77.27
59168;BME280;44948;55.046;73.266;2022-11-20T02:04:15;101152.28;;;-20.10;76.87
59168;BME280;44948;55.046;73.266;2022-11-20T02:07:57;101119.41;;;-20.29;77.18
59168;BME280;44948;55.046;73.266;2022-11-20T02:09:40;101103.25;;;-20.34;77.10
59168;BME280;44948;55.046;73.266;2022-11-20T02:11:22;101110.22;;;-20.30;76.76
59168;BME280;44948;55.046;73.266;2022-11-20T02:13:05;101157.59;;;-20.05;77.09
59168;BME280;44948;55.046;73.266;2022-11-20T02:15:06;101155.09;;;-20.05;76.95
59168;BME280;44948;55.046;73.266;2022-11-20T02:16:49;101157.69;;;-20.04;76.92
59168;BME280;44948;55.046;73.266;2022-11-20T02:18:34;101152.69;;;-20.04;76.83
59168;BME280;44948;55.046;73.266;2022-11-20T02:20:16;101157.88;;;-20.01;76.85
59168;BME280;44948;55.046;73.266;2022-11-20T02:22:17;101162.31;;;-19.97;76.75
59168;BME280;44948;55.046;73.266;2022-11-20T02:24:07;101152.97;;;-19.99;77.11
59168;BME280;44948;55.046;73.266;2022-11-20T02:25:52;101152.88;;;-20.01;76.66
59168;BME280;44948;55.046;73.266;2022-11-20T02:27:35;101160.69;;;-19.96;76.56
59168;BME280;44948;55.046;73.266;2022-11-20T02:29:45;101160.56;;;-19.98;76.75
59168;BME280;44948;55.046;73.266;2022-11-20T02:31:33;101159.41;;;-20.03;76.30
59168;BME280;44948;55.046;73.266;2022-11-20T02:33:17;101157.47;;;-20.07;76.60
59168;BME280;44948;55.046;73.266;2022-11-20T02:35:55;101159.22;;;-20.06;76.95
59168;BME280;44948;55.046;73.266;2022-11-20T02:37:12;101167.47;;;-20.07;76.52
59168;BME280;44948;55.046;73.266;2022-11-20T02:38:55;101162.47;;;-20.07;76.58
59168;BME280;44948;55.046;73.266;2022-11-20T02:40:38;101169.38;;;-20.03;76.63
59168;BME280;44948;55.046;73.266;2022-11-20T02:42:20;101172.84;;;-20.01;76.49
59168;BME280;44948;55.046;73.266;2022-11-20T02:44:04;101156.63;;;-20.07;76.58
59168;BME280;44948;55.046;73.266;2022-11-20T02:45:46;101164.16;;;-19.94;76.60
59168;BME280;44948;55.046;73.266;2022-11-20T02:47:28;101165.78;;;-19.95;76.30
59168;BME280;44948;55.046;73.266;2022-11-20T02:49:11;101139.25;;;-20.06;76.19
59168;BME280;44948;55.046;73.266;2022-11-20T02:50:53;101169.44;;;-19.90;76.45
59168;BME280;44948;55.046;73.266;2022-11-20T02:52:36;101173.66;;;-19.89;76.39
59168;BME280;44948;55.046;73.266;2022-11-20T02:54:18;101163.84;;;-19.85;76.51
59168;BME280;44948;55.046;73.266;2022-11-20T02:56:01;101156.84;;;-19.91;76.39
59168;BME280;44948;55.046;73.266;2022-11-20T02:57:43;101157.31;;;-19.83;76.44
59168;BME280;44948;55.046;73.266;2022-11-20T02:59:26;101167.63;;;-19.79;76.22
59168;BME280;44948;55.046;73.266;2022-11-20T03:01:08;101157.75;;;-19.77;76.34
59168;BME280;44948;55.046;73.266;2022-11-20T03:02:50;101165.34;;;-19.76;76.11
59168;BME280;44948;55.046;73.266;2022-11-20T03:04:33;101122.47;;;-19.95;76.18
59168;BME280;44948;55.046;73.266;2022-11-20T03:06:16;101157.25;;;-19.72;76.31
59168;BME280;44948;55.046;73.266;2022-11-20T03:07:58;101152.16;;;-19.73;75.90
59168;BME280;44948;55.046;73.266;2022-11-20T03:09:41;101161.28;;;-19.74;76.05
59168;BME280;44948;55.046;73.266;2022-11-20T03:11:23;101135.44;;;-19.88;75.56
59168;BME280;44948;55.046;73.266;2022-11-20T03:13:06;101159.94;;;-19.69;76.04
59168;BME280;44948;55.046;73.266;2022-11-20T03:14:48;101163.50;;;-19.65;76.02
59168;BME280;44948;55.046;73.266;2022-11-20T03:16:31;101160.22;;;-19.64;75.59
59168;BME280;44948;55.046;73.266;2022-11-20T03:18:14;101162.84;;;-19.63;75.94
59168;BME280;44948;55.046;73.266;2022-11-20T03:19:56;101132.38;;;-19.70;76.09
59168;BME280;44948;55.046;73.266;2022-11-20T03:21:39;101154.25;;;-19.53;76.00
59168;BME280;44948;55.046;73.266;2022-11-20T03:23:21;101150.31;;;-19.49;75.78
59168;BME280;44948;55.046;73.266;2022-11-20T03:25:04;101149.75;;;-19.45;75.90
59168;BME280;44948;55.046;73.266;2022-11-20T03:26:47;101151.00;;;-19.39;75.84
59168;BME280;44948;55.046;73.266;2022-11-20T03:28:30;101154.56;;;-19.35;75.46
59168;BME280;44948;55.046;73.266;2022-11-20T03:30:13;101158.09;;;-19.32;75.55
59168;BME280;44948;55.046;73.266;2022-11-20T03:31:55;101123.25;;;-19.43;75.71
59168;BME280;44948;55.046;73.266;2022-11-20T03:33:39;101154.47;;;-19.23;75.42
59168;BME280;44948;55.046;73.266;2022-11-20T03:35:22;101153.78;;;-19.21;75.34
59168;BME280;44948;55.046;73.266;2022-11-20T03:37:07;101152.72;;;-19.24;75.13
59168;BME280;44948;55.046;73.266;2022-11-20T03:38:50;101146.38;;;-19.19;75.12
59168;BME280;44948;55.046;73.266;2022-11-20T03:40:33;101113.69;;;-19.36;75.33
59168;BME280;44948;55.046;73.266;2022-11-20T03:42:17;101026.81;;;-19.81;74.63
59168;BME280;44948;55.046;73.266;2022-11-20T03:44:21;101140.41;;;-19.08;75.30
59168;BME280;44948;55.046;73.266;2022-11-20T03:46:04;101128.97;;;-19.18;74.55
59168;BME280;44948;55.046;73.266;2022-11-20T03:47:47;101129.44;;;-19.10;74.66
59168;BME280;44948;55.046;73.266;2022-11-20T03:49:29;101143.44;;;-18.99;74.92
59168;BME280;44948;55.046;73.266;2022-11-20T03:51:17;101137.88;;;-18.95;75.19
59168;BME280;44948;55.046;73.266;2022-11-20T03:53:02;101146.44;;;-18.91;74.95
59168;BME280;44948;55.046;73.266;2022-11-20T03:54:45;101123.28;;;-19.02;74.84
59168;BME280;44948;55.046;73.266;2022-11-20T03:56:32;101132.88;;;-18.95;74.71
59168;BME280;44948;55.046;73.266;2022-11-20T03:58:15;101144.28;;;-18.85;74.46
59168;BME280;44948;55.046;73.266;2022-11-20T03:59:57;101151.19;;;-18.81;74.51
59168;BME280;44948;55.046;73.266;2022-11-20T04:01:40;101144.78;;;-18.78;74.47
59168;BME280;44948;55.046;73.266;2022-11-20T04:03:22;101121.72;;;-19.00;74.40
59168;BME280;44948;55.046;73.266;2022-11-20T04:05:05;101134.00;;;-18.77;74.53
59168;BME280;44948;55.046;73.266;2022-11-20T04:06:47;101141.94;;;-18.69;74.41
59168;BME280;44948;55.046;73.266;2022-11-20T04:08:30;101111.00;;;-18.84;74.04
59168;BME280;44948;55.046;73.266;2022-11-20T04:10:13;101145.84;;;-18.59;74.11
59168;BME280;44948;55.046;73.266;2022-11-20T04:11:55;101143.50;;;-18.56;74.05
59168;BME280;44948;55.046;73.266;2022-11-20T04:13:38;101148.69;;;-18.53;73.91
59168;BME280;44948;55.046;73.266;2022-11-20T04:15:21;101146.88;;;-18.56;73.73
59168;BME280;44948;55.046;73.266;2022-11-20T04:17:03;101147.31;;;-18.48;73.71
59168;BME280;44948;55.046;73.266;2022-11-20T04:18:46;101147.88;;;-18.39;73.89
59168;BME280;44948;55.046;73.266;2022-11-20T04:20:28;101145.47;;;-18.38;73.89
59168;BME280;44948;55.046;73.266;2022-11-20T04:22:11;101136.28;;;-18.52;73.00
59168;BME280;44948;55.046;73.266;2022-11-20T04:23:54;101148.03;;;-18.36;73.40
59168;BME280;44948;55.046;73.266;2022-11-20T04:25:36;101144.00;;;-18.34;73.32
59168;BME280;44948;55.046;73.266;2022-11-20T04:27:19;101104.19;;;-18.44;73.47
59168;BME280;44948;55.046;73.266;2022-11-20T04:29:01;101147.94;;;-18.10;73.04
59168;BME280;44948;55.046;73.266;2022-11-20T04:30:44;101129.72;;;-18.07;73.17
59168;BME280;44948;55.046;73.266;2022-11-20T04:32:26;101129.81;;;-17.91;72.96
59168;BME280;44948;55.046;73.266;2022-11-20T04:34:11;101127.38;;;-17.89;72.94
59168;BME280;44948;55.046;73.266;2022-11-20T04:35:54;101136.63;;;-17.88;73.10
59168;BME280;44948;55.046;73.266;2022-11-20T04:37:36;101103.19;;;-18.04;72.57
59168;BME280;44948;55.046;73.266;2022-11-20T04:39:19;101117.22;;;-17.78;73.03
59168;BME280;44948;55.046;73.266;2022-11-20T04:41:04;101131.94;;;-17.67;72.60
59168;BME280;44948;55.046;73.266;2022-11-20T04:42:46;101127.59;;;-17.55;72.67
59168;BME280;44948;55.046;73.266;2022-11-20T04:44:29;101130.72;;;-17.45;72.34
59168;BME280;44948;55.046;73.266;2022-11-20T04:46:11;101110.72;;;-17.43;72.19
59168;BME280;44948;55.046;73.266;2022-11-20T04:47:53;101129.19;;;-17.26;71.95
59168;BME280;44948;55.046;73.266;2022-11-20T04:49:36;101126.38;;;-17.16;71.86
59168;BME280;44948;55.046;73.266;2022-11-20T04:51:18;101091.81;;;-17.22;72.14
59168;BME280;44948;55.046;73.266;2022-11-20T04:53:00;101129.44;;;-16.91;71.48
59168;BME280;44948;55.046;73.266;2022-11-20T04:54:42;101099.63;;;-17.01;71.42
59168;BME280;44948;55.046;73.266;2022-11-20T04:56:25;101128.59;;;-16.75;70.99
59168;BME280;44948;55.046;73.266;2022-11-20T04:58:07;101131.19;;;-16.73;70.68
59168;BME280;44948;55.046;73.266;2022-11-20T04:59:50;101125.69;;;-16.66;70.58
59168;BME280;44948;55.046;73.266;2022-11-20T05:01:32;101133.66;;;-16.57;70.44
59168;BME280;44948;55.046;73.266;2022-11-20T05:03:15;101135.06;;;-16.46;69.95
59168;BME280;44948;55.046;73.266;2022-11-20T05:04:57;101131.47;;;-16.35;69.84
59168;BME280;44948;55.046;73.266;2022-11-20T05:06:40;101136.47;;;-16.35;69.59
59168;BME280;44948;55.046;73.266;2022-11-20T05:08:22;101132.53;;;-16.30;69.84
59168;BME280;44948;55.046;73.266;2022-11-20T05:10:05;101133.59;;;-16.26;69.59
59168;BME280;44948;55.046;73.266;2022-11-20T05:11:47;101109.56;;;-16.37;69.78
59168;BME280;44948;55.046;73.266;2022-11-20T05:13:30;101098.97;;;-16.32;69.45
59168;BME280;44948;55.046;73.266;2022-11-20T05:15:12;101125.59;;;-16.01;69.80
59168;BME280;44948;55.046;73.266;2022-11-20T05:16:54;101112.09;;;-16.03;69.23
59168;BME280;44948;55.046;73.266;2022-11-20T05:18:37;101129.53;;;-15.90;69.18
59168;BME280;44948;55.046;73.266;2022-11-20T05:20:23;101125.91;;;-15.95;68.80
59168;BME280;44948;55.046;73.266;2022-11-20T05:22:05;101135.81;;;-15.98;69.10
59168;BME280;44948;55.046;73.266;2022-11-20T05:23:48;101132.50;;;-15.97;68.65
59168;BME280;44948;55.046;73.266;2022-11-20T05:25:30;101118.56;;;-16.08;68.61
59168;BME280;44948;55.046;73.266;2022-11-20T05:27:13;101116.66;;;-16.12;68.54
59168;BME280;44948;55.046;73.266;2022-11-20T05:28:55;101109.63;;;-16.20;68.60
59168;BME280;44948;55.046;73.266;2022-11-20T05:30:37;101112.44;;;-16.13;68.36
59168;BME280;44948;55.046;73.266;2022-11-20T05:32:20;101111.09;;;-16.07;68.34
59168;BME280;44948;55.046;73.266;2022-11-20T05:34:02;101114.78;;;-16.00;68.74
59168;BME280;44948;55.046;73.266;2022-11-20T05:35:44;101099.53;;;-16.03;68.42
59168;BME280;44948;55.046;73.266;2022-11-20T05:37:27;101105.41;;;-15.86;68.21
59168;BME280;44948;55.046;73.266;2022-11-20T05:39:09;101120.50;;;-15.69;68.07
59168;BME280;44948;55.046;73.266;2022-11-20T05:40:51;101110.91;;;-15.60;67.78
59168;BME280;44948;55.046;73.266;2022-11-20T05:42:33;101099.88;;;-15.62;67.24
59168;BME280;44948;55.046;73.266;2022-11-20T05:44:16;101014.19;;;-16.20;66.86
59168;BME280;44948;55.046;73.266;2022-11-20T05:45:58;101106.00;;;-15.56;67.40
59168;BME280;44948;55.046;73.266;2022-11-20T05:47:40;101107.72;;;-15.55;67.12
59168;BME280;44948;55.046;73.266;2022-11-20T05:49:22;101104.84;;;-15.45;67.06
59168;BME280;44948;55.046;73.266;2022-11-20T05:51:07;101104.25;;;-15.40;67.23
59168;BME280;44948;55.046;73.266;2022-11-20T05:52:49;101104.44;;;-15.35;67.20
59168;BME280;44948;55.046;73.266;2022-11-20T05:54:32;101103.53;;;-15.37;67.17
59168;BME280;44948;55.046;73.266;2022-11-20T05:56:19;101093.84;;;-15.47;66.20
59168;BME280;44948;55.046;73.266;2022-11-20T05:58:02;101090.41;;;-15.49;66.11
59168;BME280;44948;55.046;73.266;2022-11-20T05:59:44;101091.34;;;-15.47;66.12
59168;BME280;44948;55.046;73.266;2022-11-20T06:01:27;101098.94;;;-15.46;66.29
59168;BME280;44948;55.046;73.266;2022-11-20T06:03:09;101094.06;;;-15.43;66.23
59168;BME280;44948;55.046;73.266;2022-11-20T06:04:51;101095.19;;;-15.36;66.06
59168;BME280;44948;55.046;73.266;2022-11-20T06:06:33;101097.69;;;-15.36;65.45
59168;BME280;44948;55.046;73.266;2022-11-20T06:08:16;101079.44;;;-15.32;66.07
59168;BME280;44948;55.046;73.266;2022-11-20T06:09:58;101098.91;;;-15.28;65.81
59168;BME280;44948;55.046;73.266;2022-11-20T06:11:40;101105.03;;;-15.23;65.64
59168;BME280;44948;55.046;73.266;2022-11-20T06:13:23;101099.19;;;-15.22;66.04
59168;BME280;44948;55.046;73.266;2022-11-20T06:15:06;101099.94;;;-15.24;65.74
59168;BME280;44948;55.046;73.266;2022-11-20T06:16:48;101102.59;;;-15.21;65.97
59168;BME280;44948;55.046;73.266;2022-11-20T06:18:31;101101.06;;;-15.18;65.98
59168;BME280;44948;55.046;73.266;2022-11-20T06:20:13;101084.25;;;-15.19;66.33
59168;BME280;44948;55.046;73.266;2022-11-20T06:21:55;101104.50;;;-15.16;65.96
59168;BME280;44948;55.046;73.266;2022-11-20T06:23:38;101103.66;;;-15.16;66.35
59168;BME280;44948;55.046;73.266;2022-11-20T06:25:20;101095.09;;;-15.20;66.04
59168;BME280;44948;55.046;73.266;2022-11-20T06:27:03;101066.59;;;-15.38;66.46
59168;BME280;44948;55.046;73.266;2022-11-20T06:28:45;101095.03;;;-15.21;66.12
59168;BME280;44948;55.046;73.266;2022-11-20T06:30:28;101097.81;;;-15.15;66.51
59168;BME280;44948;55.046;73.266;2022-11-20T06:32:10;101072.97;;;-15.27;66.86
59168;BME280;44948;55.046;73.266;2022-11-20T06:33:53;101092.91;;;-15.12;66.73
59168;BME280;44948;55.046;73.266;2022-11-20T06:35:35;101087.09;;;-15.11;66.86
59168;BME280;44948;55.046;73.266;2022-11-20T06:37:17;101074.44;;;-15.13;66.98
59168;BME280;44948;55.046;73.266;2022-11-20T06:39:00;101083.66;;;-15.13;66.54
59168;BME280;44948;55.046;73.266;2022-11-20T06:40:43;101084.38;;;-15.16;66.60
59168;BME280;44948;55.046;73.266;2022-11-20T06:42:25;101081.06;;;-15.15;67.27
59168;BME280;44948;55.046;73.266;2022-11-20T06:44:07;101077.03;;;-15.11;67.27
59168;BME280;44948;55.046;73.266;2022-11-20T06:45:53;101067.81;;;-15.11;67.26
59168;BME280;44948;55.046;73.266;2022-11-20T06:47:36;101058.66;;;-15.10;67.33
59168;BME280;44948;55.046;73.266;2022-11-20T06:49:18;101061.75;;;-14.97;67.38
59168;BME280;44948;55.046;73.266;2022-11-20T06:51:03;101064.44;;;-14.93;67.97
59168;BME280;44948;55.046;73.266;2022-11-20T06:52:45;101056.59;;;-15.00;68.12
59168;BME280;44948;55.046;73.266;2022-11-20T06:54:28;101055.13;;;-14.94;67.63
59168;BME280;44948;55.046;73.266;2022-11-20T06:56:10;101036.06;;;-15.09;67.48
59168;BME280;44948;55.046;73.266;2022-11-20T06:57:52;101056.78;;;-14.95;67.53
59168;BME280;44948;55.046;73.266;2022-11-20T06:59:35;101027.66;;;-15.09;67.82
59168;BME280;44948;55.046;73.266;2022-11-20T07:01:17;101050.50;;;-14.85;68.11
59168;BME280;44948;55.046;73.266;2022-11-20T07:03:03;101040.84;;;-14.76;67.89
59168;BME280;44948;55.046;73.266;2022-11-20T07:04:45;101003.47;;;-15.06;67.97
59168;BME280;44948;55.046;73.266;2022-11-20T07:06:30;101029.94;;;-14.77;68.12
59168;BME280;44948;55.046;73.266;2022-11-20T07:08:13;101042.81;;;-14.69;67.91
59168;BME280;44948;55.046;73.266;2022-11-20T07:09:55;101042.28;;;-14.62;68.19
59168;BME280;44948;55.046;73.266;2022-11-20T07:11:37;101049.03;;;-14.61;67.64
59168;BME280;44948;55.046;73.266;2022-11-20T07:13:20;101035.00;;;-14.56;67.74
59168;BME280;44948;55.046;73.266;2022-11-20T07:15:02;101028.19;;;-14.58;67.96
59168;BME280;44948;55.046;73.266;2022-11-20T07:16:45;101036.84;;;-14.52;67.80
59168;BME280;44948;55.046;73.266;2022-11-20T07:18:27;101038.69;;;-14.48;67.99
59168;BME280;44948;55.046;73.266;2022-11-20T07:20:10;101033.78;;;-14.45;68.04
59168;BME280;44948;55.046;73.266;2022-11-20T07:21:52;101040.88;;;-14.36;68.08
59168;BME280;44948;55.046;73.266;2022-11-20T07:23:35;101038.81;;;-14.25;68.32
59168;BME280;44948;55.046;73.266;2022-11-20T07:25:17;101028.31;;;-14.14;67.95
59168;BME280;44948;55.046;73.266;2022-11-20T07:27:00;101023.81;;;-14.00;68.12
59168;BME280;44948;55.046;73.266;2022-11-20T07:28:44;101009.88;;;-14.13;67.96
59168;BME280;44948;55.046;73.266;2022-11-20T07:30:28;101010.06;;;-14.08;67.36
59168;BME280;44948;55.046;73.266;2022-11-20T07:32:10;101024.91;;;-13.93;67.88
59168;BME280;44948;55.046;73.266;2022-11-20T07:46:51;101011.34;;;-12.85;63.96
59168;BME280;44948;55.046;73.266;2022-11-20T07:59:22;100974.28;;;-12.86;62.76
59168;BME280;44948;55.046;73.266;2022-11-20T08:01:06;101001.47;;;-13.03;63.68
59168;BME280;44948;55.046;73.266;2022-11-20T08:02:49;100970.00;;;-13.35;64.82
59168;BME280;44948;55.046;73.266;2022-11-20T08:04:32;100997.53;;;-13.41;64.32
59168;BME280;44948;55.046;73.266;2022-11-20T08:06:14;100887.25;;;-14.34;65.05
59168;BME280;44948;55.046;73.266;2022-11-20T08:07:59;101003.88;;;-13.73;65.09
59168;BME280;44948;55.046;73.266;2022-11-20T08:09:41;100987.53;;;-13.83;65.39
59168;BME280;44948;55.046;73.266;2022-11-20T08:11:24;100992.53;;;-13.84;65.64
59168;BME280;44948;55.046;73.266;2022-11-20T08:13:25;100902.66;;;-14.48;65.74
59168;BME280;44948;55.046;73.266;2022-11-20T08:15:25;100987.91;;;-13.94;65.98
59168;BME280;44948;55.046;73.266;2022-11-20T08:17:08;100966.59;;;-14.02;66.19
59168;BME280;44948;55.046;73.266;2022-11-20T08:18:50;100987.19;;;-13.92;66.14
59168;BME280;44948;55.046;73.266;2022-11-20T08:20:32;100991.53;;;-13.88;66.31
59168;BME280;44948;55.046;73.266;2022-11-20T08:22:15;100988.28;;;-13.85;66.06
59168;BME280;44948;55.046;73.266;2022-11-20T08:23:59;100963.44;;;-13.97;66.08
59168;BME280;44948;55.046;73.266;2022-11-20T08:25:49;100989.09;;;-13.86;66.25
59168;BME280;44948;55.046;73.266;2022-11-20T08:27:32;100969.97;;;-14.02;66.30
59168;BME280;44948;55.046;73.266;2022-11-20T08:29:14;100982.25;;;-13.89;66.39
59168;BME280;44948;55.046;73.266;2022-11-20T08:31:00;100981.09;;;-13.97;65.85
59168;BME280;44948;55.046;73.266;2022-11-20T08:32:43;100984.34;;;-13.99;66.38
59168;BME280;44948;55.046;73.266;2022-11-20T08:34:25;100988.66;;;-13.97;66.55
59168;BME280;44948;55.046;73.266;2022-11-20T08:36:08;100983.59;;;-13.97;66.41
59168;BME280;44948;55.046;73.266;2022-11-20T08:37:50;100968.38;;;-14.00;66.40
59168;BME280;44948;55.046;73.266;2022-11-20T08:39:33;100982.75;;;-13.97;66.64
59168;BME280;44948;55.046;73.266;2022-11-20T09:28:41;100937.44;;;-13.96;64.17
59168;BME280;44948;55.046;73.266;2022-11-20T09:30:24;100941.66;;;-13.95;64.31
59168;BME280;44948;55.046;73.266;2022-11-20T09:32:07;100950.56;;;-13.82;64.51
59168;BME280;44948;55.046;73.266;2022-11-20T09:33:49;100951.38;;;-13.83;63.92
59168;BME280;44948;55.046;73.266;2022-11-20T09:35:32;100943.63;;;-13.88;63.87
59168;BME280;44948;55.046;73.266;2022-11-20T09:37:15;100940.75;;;-13.97;64.40
59168;BME280;44948;55.046;73.266;2022-11-20T09:38:57;100862.78;;;-14.37;64.35
59168;BME280;44948;55.046;73.266;2022-11-20T09:40:45;100900.44;;;-14.19;64.67
59168;BME280;44948;55.046;73.266;2022-11-20T09:42:47;100941.13;;;-13.88;64.85
59168;BME280;44948;55.046;73.266;2022-11-20T09:44:46;100929.19;;;-13.92;64.61
59168;BME280;44948;55.046;73.266;2022-11-20T09:52:22;100935.84;;;-13.71;64.93
59168;BME280;44948;55.046;73.266;2022-11-20T09:54:21;100936.19;;;-13.85;64.79
59168;BME280;44948;55.046;73.266;2022-11-20T09:56:12;100929.13;;;-13.93;65.19
59168;BME280;44948;55.046;73.266;2022-11-20T09:57:57;100941.06;;;-13.89;64.87
59168;BME280;44948;55.046;73.266;2022-11-20T09:59:48;100941.94;;;-13.89;65.54
59168;BME280;44948;55.046;73.266;2022-11-20T10:01:35;100941.94;;;-13.89;65.10
59168;BME280;44948;55.046;73.266;2022-11-20T10:03:29;100919.94;;;-13.93;65.43
59168;BME280;44948;55.046;73.266;2022-11-20T10:05:22;100937.97;;;-13.82;64.99
59168;BME280;44948;55.046;73.266;2022-11-20T10:07:15;100855.19;;;-14.39;64.84
59168;BME280;44948;55.046;73.266;2022-11-20T10:11:14;100955.28;;;-13.91;65.26